Time;durP1;ratioP1;P1;durP2;ratioP2;P2;SDS_P1;SDS_P2;PMS_P1;PMS_P2;Temp;Humidity;BMP_temperature;BMP_pressure;BME280_temperature;BME280_humidity;BME280_pressure;Samples;Min_cycle;Max_cycle;Signal;HPM_P1;HPM_P2
2023/05/16 00:01:39;;;;;;;12.93;8.05;;;;;;;;;;5055505;28;20027;-75
2023/05/16 00:04:05;;;;;;;9.98;7.82;;;;;;;;;;5033560;28;20115;-76
2023/05/16 00:06:31;;;;;;;11.15;8.07;;;;;;;;;;5050885;28;20148;-76
2023/05/16 00:08:56;;;;;;;14.20;8.30;;;;;;;;;;5050424;28;20044;-76
2023/05/16 00:11:22;;;;;;;17.40;8.40;;;;;;;;;;5032455;28;20032;-76
2023/05/16 00:13:48;;;;;;;11.82;7.70;;;;;;;;;;5049964;28;20043;-76
2023/05/16 00:16:13;;;;;;;12.88;9.05;;;;;;;;;;5050004;28;20021;-77
2023/05/16 00:18:39;;;;;;;9.50;8.27;;;;;;;;;;5031827;28;20056;-76
2023/05/16 00:21:05;;;;;;;12.75;8.90;;;;;;;;;;5049869;28;20028;-76
2023/05/16 00:23:33;;;;;;;10.68;8.30;;;;;;;;;;5030254;28;20027;-77
2023/05/16 00:25:58;;;;;;;8.85;7.78;;;;;;;;;;5051891;28;20511;-76
2023/05/16 00:28:24;;;;;;;9.63;7.60;;;;;;;;;;5069535;28;20028;-75
2023/05/16 00:30:49;;;;;;;9.80;8.05;;;;;;;;;;5069704;28;20033;-76
2023/05/16 00:33:15;;;;;;;11.73;8.63;;;;;;;;;;5069522;28;20440;-76
2023/05/16 00:35:41;;;;;;;13.57;8.63;;;;;;;;;;5069726;28;20090;-76
2023/05/16 00:38:06;;;;;;;11.05;8.50;;;;;;;;;;5051349;28;20078;-76
2023/05/16 00:40:32;;;;;;;10.05;8.65;;;;;;;;;;5051740;28;20016;-76
2023/05/16 00:42:57;;;;;;;13.88;8.35;;;;;;;;;;5062122;28;20087;-76
2023/05/16 00:45:23;;;;;;;10.80;8.32;;;;;;;;;;5031853;28;20032;-76
2023/05/16 00:47:50;;;;;;;11.52;8.32;;;;;;;;;;5011709;28;20036;-76
2023/05/16 00:50:16;;;;;;;12.52;9.48;;;;;;;;;;5029909;28;20150;-76
2023/05/16 00:52:43;;;;;;;11.23;8.45;;;;;;;;;;5036453;28;20079;-76
2023/05/16 00:55:12;;;;;;;13.10;9.30;;;;;;;;;;5053323;28;20057;-75
2023/05/16 00:57:38;;;;;;;12.23;7.68;;;;;;;;;;5041882;28;20205;-76
2023/05/16 01:00:05;;;;;;;14.77;8.48;;;;;;;;;;5073929;28;20650;-76
2023/05/16 01:02:33;;;;;;;10.68;8.30;;;;;;;;;;5055647;28;20055;-75
2023/05/16 01:05:00;;;;;;;12.93;9.07;;;;;;;;;;5055979;28;20028;-75
2023/05/16 01:07:26;;;;;;;10.82;8.30;;;;;;;;;;5057224;28;20025;-75
2023/05/16 01:09:53;;;;;;;10.65;8.63;;;;;;;;;;5074760;28;20059;-77
2023/05/16 01:12:43;;;;;;;12.48;8.55;;;;;;;;;;5072505;28;20030;-74
2023/05/16 01:15:33;;;;;;;11.43;8.63;;;;;;;;;;5054189;28;20044;-76
2023/05/16 01:18:02;;;;;;;10.05;8.00;;;;;;;;;;5043952;28;20392;-75
2023/05/16 01:20:48;;;;;;;13.98;9.38;;;;;;;;;;5056901;28;20024;-76
2023/05/16 01:23:42;;;;;;;21.42;8.88;;;;;;;;;;5074807;28;20036;-75
2023/05/16 01:26:17;;;;;;;10.63;8.07;;;;;;;;;;5056906;28;20100;-75
2023/05/16 01:28:47;;;;;;;11.25;8.60;;;;;;;;;;5056081;28;20028;-75
2023/05/16 01:31:15;;;;;;;11.85;8.23;;;;;;;;;;5039252;28;20082;-76
2023/05/16 01:33:40;;;;;;;10.05;7.60;;;;;;;;;;5054840;28;20037;-76
2023/05/16 01:36:18;;;;;;;11.30;8.48;;;;;;;;;;5073521;28;20027;-76
2023/05/16 01:39:18;;;;;;;11.77;8.45;;;;;;;;;;5060051;28;20025;-76
2023/05/16 01:42:03;;;;;;;12.13;7.93;;;;;;;;;;5052142;28;20033;-76
2023/05/16 01:44:48;;;;;;;14.00;8.50;;;;;;;;;;5072060;28;20032;-77
2023/05/16 01:47:16;;;;;;;10.73;8.73;;;;;;;;;;5073145;28;20020;-76
2023/05/16 01:50:09;;;;;;;12.85;9.02;;;;;;;;;;5073238;28;20032;-76
2023/05/16 01:52:43;;;;;;;13.55;8.85;;;;;;;;;;5054395;28;20031;-76
2023/05/16 01:55:18;;;;;;;10.57;8.57;;;;;;;;;;5072645;28;20115;-76
2023/05/16 01:57:44;;;;;;;14.65;9.10;;;;;;;;;;5068959;28;20029;-76
2023/05/16 02:00:11;;;;;;;15.20;9.20;;;;;;;;;;5052198;28;20029;-75
2023/05/16 02:02:36;;;;;;;11.40;9.10;;;;;;;;;;5033414;28;20037;-77
2023/05/16 02:05:02;;;;;;;13.25;9.05;;;;;;;;;;5033264;28;20087;-76
2023/05/16 02:07:29;;;;;;;14.27;9.85;;;;;;;;;;5034763;28;20029;-77
2023/05/16 02:09:54;;;;;;;14.52;9.02;;;;;;;;;;5052658;28;20021;-75
2023/05/16 02:12:20;;;;;;;13.38;9.73;;;;;;;;;;5034317;28;20018;-77
2023/05/16 02:14:45;;;;;;;12.30;9.02;;;;;;;;;;5053236;28;20044;-76
2023/05/16 02:17:11;;;;;;;13.85;9.07;;;;;;;;;;5054174;28;20075;-76
2023/05/16 02:19:36;;;;;;;12.38;9.00;;;;;;;;;;5053568;28;20040;-76
2023/05/16 02:22:02;;;;;;;12.70;8.90;;;;;;;;;;5071327;28;20029;-76
2023/05/16 02:24:27;;;;;;;13.38;9.60;;;;;;;;;;5071462;28;20068;-77
2023/05/16 02:26:53;;;;;;;12.68;9.32;;;;;;;;;;5036782;28;20028;-76
2023/05/16 02:29:19;;;;;;;12.18;9.23;;;;;;;;;;5053948;28;20383;-76
2023/05/16 02:31:44;;;;;;;11.35;8.45;;;;;;;;;;5053735;28;20043;-76
2023/05/16 02:34:10;;;;;;;14.88;9.00;;;;;;;;;;5071828;28;20079;-76
2023/05/16 02:36:35;;;;;;;11.80;7.95;;;;;;;;;;5054500;28;20036;-76
2023/05/16 02:39:03;;;;;;;15.57;10.25;;;;;;;;;;5071656;28;20064;-76
2023/05/16 02:41:29;;;;;;;11.50;8.82;;;;;;;;;;5070980;28;20044;-76
2023/05/16 02:43:54;;;;;;;11.70;8.02;;;;;;;;;;5043277;28;20028;-76
2023/05/16 02:46:24;;;;;;;13.65;9.90;;;;;;;;;;5052137;28;20158;-77
2023/05/16 02:48:50;;;;;;;14.35;8.70;;;;;;;;;;5033984;28;20029;-76
2023/05/16 02:51:17;;;;;;;12.30;8.73;;;;;;;;;;5034028;28;20036;-75
2023/05/16 02:53:42;;;;;;;11.57;8.85;;;;;;;;;;5042543;28;20131;-75
2023/05/16 02:56:09;;;;;;;13.93;9.60;;;;;;;;;;5054300;28;20119;-76
2023/05/16 02:58:34;;;;;;;12.70;8.73;;;;;;;;;;5071994;28;20039;-75
2023/05/16 03:01:01;;;;;;;14.10;9.13;;;;;;;;;;5053743;28;20016;-76
2023/05/16 03:03:28;;;;;;;12.10;9.18;;;;;;;;;;5071649;28;20060;-76
2023/05/16 03:05:55;;;;;;;13.77;9.00;;;;;;;;;;5053497;28;20032;-76
2023/05/16 03:08:21;;;;;;;11.75;8.85;;;;;;;;;;5071114;28;20028;-76
2023/05/16 03:10:48;;;;;;;15.48;9.48;;;;;;;;;;5071344;28;20036;-77
2023/05/16 03:13:15;;;;;;;12.38;9.15;;;;;;;;;;5068025;28;20528;-76
2023/05/16 03:15:40;;;;;;;12.43;9.15;;;;;;;;;;5050740;28;20108;-76
2023/05/16 03:18:06;;;;;;;10.77;8.65;;;;;;;;;;5033533;28;20414;-76
2023/05/16 03:20:32;;;;;;;12.55;9.15;;;;;;;;;;5033561;28;20501;-76
2023/05/16 03:22:58;;;;;;;15.13;9.25;;;;;;;;;;5033245;28;20558;-76
2023/05/16 03:25:24;;;;;;;15.32;9.10;;;;;;;;;;5033850;28;20405;-76
2023/05/16 03:27:49;;;;;;;17.73;9.68;;;;;;;;;;5033321;28;20036;-75
2023/05/16 03:30:15;;;;;;;12.05;8.57;;;;;;;;;;5050599;28;20040;-75
2023/05/16 03:32:44;;;;;;;14.35;8.52;;;;;;;;;;5050741;28;20068;-76
2023/05/16 03:35:10;;;;;;;15.70;9.73;;;;;;;;;;5050787;28;20115;-76
2023/05/16 03:37:38;;;;;;;13.02;9.43;;;;;;;;;;5050693;28;20409;-76
2023/05/16 03:40:06;;;;;;;12.00;8.60;;;;;;;;;;5032403;28;20029;-76
2023/05/16 03:42:31;;;;;;;12.15;8.40;;;;;;;;;;5031754;28;20047;-76
2023/05/16 03:44:57;;;;;;;14.77;10.75;;;;;;;;;;5031740;28;20463;-76
2023/05/16 03:47:23;;;;;;;11.07;8.90;;;;;;;;;;5052474;28;20553;-75
2023/05/16 03:49:48;;;;;;;12.13;9.15;;;;;;;;;;5070394;28;20048;-76
2023/05/16 03:52:14;;;;;;;12.10;8.50;;;;;;;;;;5052253;28;20032;-75
2023/05/16 03:54:40;;;;;;;11.55;8.55;;;;;;;;;;5051883;28;20109;-76
2023/05/16 03:57:07;;;;;;;15.45;10.45;;;;;;;;;;5069814;28;20028;-77
2023/05/16 03:59:33;;;;;;;15.02;9.52;;;;;;;;;;5069926;28;20104;-76
2023/05/16 04:01:58;;;;;;;20.45;11.52;;;;;;;;;;5052064;28;20024;-77
2023/05/16 04:04:25;;;;;;;11.93;8.20;;;;;;;;;;5070226;28;20028;-77
2023/05/16 04:06:50;;;;;;;14.40;9.38;;;;;;;;;;5052369;28;20020;-77
2023/05/16 04:09:16;;;;;;;13.52;8.82;;;;;;;;;;5043595;28;20179;-79
2023/05/16 04:11:42;;;;;;;12.65;9.02;;;;;;;;;;5034365;28;20039;-78
2023/05/16 04:14:09;;;;;;;18.25;9.18;;;;;;;;;;5054192;28;20041;-77
2023/05/16 04:16:36;;;;;;;16.95;8.48;;;;;;;;;;5054855;28;20609;-78
2023/05/16 04:19:02;;;;;;;10.88;9.18;;;;;;;;;;5053228;28;20036;-77
2023/05/16 04:21:28;;;;;;;15.65;8.80;;;;;;;;;;5034509;28;20074;-77
2023/05/16 04:23:53;;;;;;;12.82;8.52;;;;;;;;;;5037225;28;20029;-78
2023/05/16 04:26:21;;;;;;;11.80;8.57;;;;;;;;;;5069833;28;20040;-77
2023/05/16 04:28:46;;;;;;;14.48;8.75;;;;;;;;;;5051094;28;20487;-77
2023/05/16 04:31:13;;;;;;;14.00;9.10;;;;;;;;;;5051827;28;20048;-77
2023/05/16 04:33:39;;;;;;;10.55;7.50;;;;;;;;;;5051769;28;20117;-77
2023/05/16 04:36:04;;;;;;;12.00;8.60;;;;;;;;;;5051875;28;20556;-76
2023/05/16 04:38:31;;;;;;;12.30;8.75;;;;;;;;;;5051326;28;20037;-77
2023/05/16 04:40:58;;;;;;;14.98;9.57;;;;;;;;;;5051548;28;20039;-76
2023/05/16 04:43:23;;;;;;;12.60;9.73;;;;;;;;;;5069494;28;20029;-77
2023/05/16 04:45:49;;;;;;;16.30;9.82;;;;;;;;;;5051085;28;20028;-77
2023/05/16 04:48:15;;;;;;;18.70;8.68;;;;;;;;;;5069690;28;20385;-78
2023/05/16 04:50:40;;;;;;;17.20;9.88;;;;;;;;;;5070393;28;20120;-78
2023/05/16 04:53:06;;;;;;;12.25;8.30;;;;;;;;;;5045909;28;20032;-77
2023/05/16 04:55:32;;;;;;;11.40;9.20;;;;;;;;;;5032799;28;20057;-77
2023/05/16 04:57:57;;;;;;;15.63;9.50;;;;;;;;;;5050482;28;20517;-76
2023/05/16 05:00:24;;;;;;;17.52;10.07;;;;;;;;;;5032668;28;20530;-78
2023/05/16 05:02:50;;;;;;;13.00;9.43;;;;;;;;;;5035909;28;20099;-78
2023/05/16 05:05:15;;;;;;;13.35;10.25;;;;;;;;;;5064202;28;20180;-78
2023/05/16 05:07:41;;;;;;;13.48;9.80;;;;;;;;;;5038582;28;20206;-75
2023/05/16 05:10:10;;;;;;;15.50;10.15;;;;;;;;;;5039320;28;20452;-78
2023/05/16 05:12:37;;;;;;;15.93;10.25;;;;;;;;;;5044798;28;20041;-71
2023/05/16 05:15:04;;;;;;;17.05;12.05;;;;;;;;;;5027329;28;20342;-76
2023/05/16 05:17:29;;;;;;;17.38;11.90;;;;;;;;;;5027788;28;20448;-76
2023/05/16 05:19:55;;;;;;;19.95;12.88;;;;;;;;;;5043001;28;20146;-76
2023/05/16 05:22:21;;;;;;;17.48;13.13;;;;;;;;;;5043193;28;20373;-74
2023/05/16 05:24:48;;;;;;;16.52;12.55;;;;;;;;;;5042948;28;20040;-76
2023/05/16 05:27:13;;;;;;;21.48;13.98;;;;;;;;;;5019578;28;20067;-74
2023/05/16 05:29:39;;;;;;;20.98;13.80;;;;;;;;;;5033432;28;20056;-73
2023/05/16 05:32:05;;;;;;;21.23;12.88;;;;;;;;;;5006300;28;20076;-73
2023/05/16 05:34:32;;;;;;;17.55;12.80;;;;;;;;;;5025359;28;20057;-75
2023/05/16 05:36:57;;;;;;;19.05;13.18;;;;;;;;;;5033583;28;20056;-75
2023/05/16 05:39:23;;;;;;;15.40;11.00;;;;;;;;;;5050343;28;20013;-74
2023/05/16 05:41:49;;;;;;;16.80;10.95;;;;;;;;;;5032164;28;20159;-76
2023/05/16 05:44:15;;;;;;;16.23;10.57;;;;;;;;;;5048101;28;20041;-75
2023/05/16 05:46:41;;;;;;;15.57;10.77;;;;;;;;;;5044650;28;20495;-74
2023/05/16 05:49:13;;;;;;;14.88;11.40;;;;;;;;;;5028046;28;20291;-76
2023/05/16 05:51:38;;;;;;;;;;;;;;;;;;5024765;28;20064;-75
2023/05/16 05:54:04;;;;;;;14.75;11.60;;;;;;;;;;5046775;28;19963;-78
2023/05/16 05:56:30;;;;;;;16.30;11.38;;;;;;;;;;5055510;28;20024;-74
2023/05/16 05:58:57;;;;;;;21.95;11.90;;;;;;;;;;5023813;28;20025;-72
2023/05/16 06:01:24;;;;;;;17.15;12.07;;;;;;;;;;5047421;28;20094;-74
2023/05/16 06:03:50;;;;;;;18.70;12.35;;;;;;;;;;5039924;28;20079;-77
2023/05/16 06:06:16;;;;;;;15.00;11.18;;;;;;;;;;5004780;28;20033;-76
2023/05/16 06:08:42;;;;;;;17.35;11.43;;;;;;;;;;5040915;28;20099;-75
2023/05/16 06:11:11;;;;;;;16.08;11.50;;;;;;;;;;5043131;28;20033;-77
2023/05/16 06:13:37;;;;;;;14.15;11.52;;;;;;;;;;5056940;28;20041;-74
2023/05/16 06:16:05;;;;;;;19.92;12.75;;;;;;;;;;5046142;28;20040;-77
2023/05/16 06:18:31;;;;;;;14.00;11.75;;;;;;;;;;5023987;28;20032;-76
2023/05/16 06:21:01;;;;;;;15.70;11.20;;;;;;;;;;5029045;28;20025;-78
2023/05/16 06:23:28;;;;;;;18.48;12.45;;;;;;;;;;5047021;28;20056;-77
2023/05/16 06:25:54;;;;;;;17.10;11.45;;;;;;;;;;5044488;28;20025;-76
2023/05/16 06:28:19;;;;;;;22.35;11.40;;;;;;;;;;5039425;28;20040;-74
2023/05/16 06:30:46;;;;;;;18.27;11.63;;;;;;;;;;5031347;28;20025;-74
2023/05/16 06:33:14;;;;;;;15.13;11.98;;;;;;;;;;5030627;28;20373;-75
2023/05/16 06:35:40;;;;;;;16.17;11.18;;;;;;;;;;5043622;28;20048;-73
2023/05/16 06:38:05;;;;;;;17.65;12.07;;;;;;;;;;5042909;28;20028;-74
2023/05/16 06:40:31;;;;;;;14.75;11.13;;;;;;;;;;5038785;28;20033;-75
2023/05/16 06:43:04;;;;;;;14.73;10.90;;;;;;;;;;5035904;28;20175;-78
2023/05/16 06:45:29;;;;;;;16.60;11.73;;;;;;;;;;5047392;28;20134;-72
2023/05/16 06:47:55;;;;;;;15.98;10.93;;;;;;;;;;5032158;28;20481;-77
2023/05/16 06:50:21;;;;;;;17.08;11.25;;;;;;;;;;5026579;28;20039;-78
2023/05/16 06:52:47;;;;;;;15.98;11.27;;;;;;;;;;5027608;28;20037;-76
2023/05/16 06:55:13;;;;;;;14.85;11.85;;;;;;;;;;5028150;28;20057;-77
2023/05/16 06:57:39;;;;;;;21.67;11.20;;;;;;;;;;5026098;28;20110;-77
2023/05/16 07:00:05;;;;;;;16.52;11.32;;;;;;;;;;5009532;28;20065;-75
2023/05/16 07:02:32;;;;;;;13.68;11.05;;;;;;;;;;5025801;28;20104;-75
2023/05/16 07:04:58;;;;;;;14.02;10.32;;;;;;;;;;5023037;28;20029;-76
2023/05/16 07:07:23;;;;;;;16.70;11.23;;;;;;;;;;5042466;28;20028;-75
2023/05/16 07:09:49;;;;;;;14.30;9.82;;;;;;;;;;5043997;28;20075;-75
2023/05/16 07:12:15;;;;;;;21.80;11.88;;;;;;;;;;5024742;28;20079;-75
2023/05/16 07:14:42;;;;;;;15.35;10.32;;;;;;;;;;5047799;28;20591;-74
2023/05/16 07:17:10;;;;;;;14.82;11.20;;;;;;;;;;5026491;28;20036;-77
2023/05/16 07:19:35;;;;;;;17.60;11.25;;;;;;;;;;5026030;28;20640;-78
2023/05/16 07:22:01;;;;;;;19.55;11.13;;;;;;;;;;5024214;28;20124;-76
2023/05/16 07:24:27;;;;;;;17.90;10.98;;;;;;;;;;5041372;28;20040;-76
2023/05/16 07:26:54;;;;;;;22.45;10.80;;;;;;;;;;5011717;28;20033;-76
2023/05/16 07:29:23;;;;;;;14.75;10.57;;;;;;;;;;5020653;28;20028;-75
2023/05/16 07:31:49;;;;;;;14.00;10.75;;;;;;;;;;5017050;28;20110;-75
2023/05/16 07:34:14;;;;;;;14.63;10.75;;;;;;;;;;5019419;28;20405;-75
2023/05/16 07:36:40;;;;;;;16.25;11.48;;;;;;;;;;5034013;28;20040;-74
2023/05/16 07:39:05;;;;;;;24.00;11.65;;;;;;;;;;5017429;28;20032;-77
2023/05/16 07:41:31;;;;;;;16.42;10.32;;;;;;;;;;5027313;28;20025;-76
2023/05/16 07:43:56;;;;;;;18.75;11.68;;;;;;;;;;5041071;28;20020;-75
2023/05/16 07:46:25;;;;;;;17.65;10.68;;;;;;;;;;5018630;28;20119;-75
2023/05/16 07:48:51;;;;;;;16.85;11.55;;;;;;;;;;5030628;28;20033;-76
2023/05/16 07:51:23;;;;;;;18.13;11.88;;;;;;;;;;5033710;28;20040;-75
2023/05/16 07:53:50;;;;;;;25.08;14.85;;;;;;;;;;5039410;28;20050;-76
2023/05/16 07:56:16;;;;;;;13.05;11.63;;;;;;;;;;5038529;28;20346;-77
2023/05/16 07:58:42;;;;;;;14.50;11.52;;;;;;;;;;5036586;28;20043;-76
2023/05/16 08:01:08;;;;;;;14.38;11.68;;;;;;;;;;5019980;28;20600;-76
2023/05/16 08:03:34;;;;;;;23.52;11.73;;;;;;;;;;5026130;28;20115;-75
2023/05/16 08:05:59;;;;;;;17.98;12.27;;;;;;;;;;5058852;28;20032;-77
2023/05/16 08:08:25;;;;;;;16.48;11.15;;;;;;;;;;5022464;28;20029;-77
2023/05/16 08:10:51;;;;;;;16.55;12.57;;;;;;;;;;5018335;28;20063;-76
2023/05/16 08:13:16;;;;;;;19.70;13.25;;;;;;;;;;5023225;28;20197;-77
2023/05/16 08:15:42;;;;;;;17.90;12.60;;;;;;;;;;5039627;28;20112;-78
2023/05/16 08:18:13;;;;;;;22.13;13.88;;;;;;;;;;5026659;28;20128;-78
2023/05/16 08:20:40;;;;;;;17.33;12.18;;;;;;;;;;5011491;28;20025;-77
2023/05/16 08:23:06;;;;;;;16.13;12.45;;;;;;;;;;5039796;28;20036;-75
2023/05/16 08:25:32;;;;;;;19.45;12.88;;;;;;;;;;5044566;28;20032;-76
2023/05/16 08:27:58;;;;;;;15.57;12.38;;;;;;;;;;5043027;28;20388;-76
2023/05/16 08:30:25;;;;;;;17.10;13.30;;;;;;;;;;5025607;28;20631;-76
2023/05/16 08:32:52;;;;;;;34.08;14.10;;;;;;;;;;5054292;28;20028;-76
2023/05/16 08:35:17;;;;;;;22.98;13.88;;;;;;;;;;5038727;28;20047;-76
2023/05/16 08:37:43;;;;;;;18.92;15.43;;;;;;;;;;5028311;28;20116;-76
2023/05/16 08:40:11;;;;;;;15.00;11.50;;;;;;;;;;5044382;28;20388;-73
2023/05/16 08:42:38;;;;;;;18.95;13.57;;;;;;;;;;5022435;28;20063;-74
2023/05/16 08:45:07;;;;;;;16.17;13.00;;;;;;;;;;5020635;28;20036;-77
2023/05/16 08:47:35;;;;;;;16.27;13.23;;;;;;;;;;5024379;28;20052;-76
2023/05/16 08:50:08;;;;;;;18.05;12.18;;;;;;;;;;5010741;28;20043;-76
2023/05/16 08:52:41;;;;;;;25.13;13.75;;;;;;;;;;5026715;28;20516;-76
2023/05/16 08:55:10;;;;;;;18.77;13.30;;;;;;;;;;5025795;28;20505;-76
2023/05/16 08:57:40;;;;;;;18.23;13.05;;;;;;;;;;5035406;28;20060;-74
2023/05/16 09:00:11;;;;;;;18.83;13.10;;;;;;;;;;5039421;28;20041;-78
2023/05/16 09:02:39;;;;;;;22.05;13.93;;;;;;;;;;5048189;28;20099;-75
2023/05/16 09:05:07;;;;;;;20.80;16.50;;;;;;;;;;5014356;28;20183;-77
2023/05/16 09:07:32;;;;;;;16.15;14.45;;;;;;;;;;5021293;28;20033;-75
2023/05/16 09:09:58;;;;;;;18.88;14.50;;;;;;;;;;5018321;28;20373;-74
2023/05/16 09:12:25;;;;;;;28.25;16.38;;;;;;;;;;5020875;28;20095;-76
2023/05/16 09:14:52;;;;;;;23.42;14.63;;;;;;;;;;5003162;28;20025;-76
2023/05/16 09:17:17;;;;;;;21.58;14.35;;;;;;;;;;5014288;28;20124;-77
2023/05/16 09:19:43;;;;;;;17.02;14.35;;;;;;;;;;5031462;28;20124;-76
2023/05/16 09:22:13;;;;;;;23.58;16.52;;;;;;;;;;5016615;28;20025;-75
2023/05/16 09:24:43;;;;;;;17.73;14.63;;;;;;;;;;5014939;28;20552;-74
2023/05/16 09:27:11;;;;;;;22.52;15.20;;;;;;;;;;4992564;28;20045;-75
2023/05/16 09:29:41;;;;;;;16.02;13.20;;;;;;;;;;5013441;28;20044;-76
2023/05/16 09:32:14;;;;;;;16.88;13.90;;;;;;;;;;5026205;28;20053;-77
2023/05/16 09:34:50;;;;;;;18.98;14.60;;;;;;;;;;5024895;28;20113;-76
2023/05/16 09:37:16;;;;;;;17.58;14.20;;;;;;;;;;5021942;28;20045;-77
2023/05/16 09:39:53;;;;;;;15.95;13.68;;;;;;;;;;5017575;28;20036;-77
2023/05/16 09:42:21;;;;;;;16.88;13.50;;;;;;;;;;5017174;28;20042;-77
2023/05/16 09:44:56;;;;;;;17.48;15.00;;;;;;;;;;5026499;28;20056;-76
2023/05/16 09:47:22;;;;;;;20.17;14.68;;;;;;;;;;5018520;28;20182;-76
2023/05/16 09:49:52;;;;;;;16.45;13.60;;;;;;;;;;5042345;28;20033;-75
2023/05/16 09:52:19;;;;;;;15.80;13.32;;;;;;;;;;5022550;28;20095;-76
2023/05/16 09:54:51;;;;;;;19.70;13.73;;;;;;;;;;5021877;28;20044;-74
2023/05/16 09:57:22;;;;;;;22.98;15.55;;;;;;;;;;5048420;28;20060;-78
2023/05/16 09:59:49;;;;;;;18.67;15.25;;;;;;;;;;5046030;28;20465;-81
2023/05/16 10:02:16;;;;;;;25.67;16.33;;;;;;;;;;5024292;28;20048;-77
2023/05/16 10:04:41;;;;;;;20.88;15.27;;;;;;;;;;5023555;28;20029;-76
2023/05/16 10:07:08;;;;;;;19.83;15.48;;;;;;;;;;5019416;28;20558;-78
2023/05/16 10:09:35;;;;;;;17.67;15.00;;;;;;;;;;5020660;28;20120;-73
2023/05/16 10:12:03;;;;;;;17.85;14.45;;;;;;;;;;5020188;28;20078;-76
2023/05/16 10:14:35;;;;;;;19.42;16.15;;;;;;;;;;5048193;28;20056;-77
2023/05/16 10:17:06;;;;;;;20.90;16.45;;;;;;;;;;5018648;28;20108;-77
2023/05/16 10:19:36;;;;;;;19.77;14.73;;;;;;;;;;5021065;28;20040;-76
2023/05/16 10:22:05;;;;;;;16.88;14.05;;;;;;;;;;5023189;28;20052;-76
2023/05/16 10:24:57;;;;;;;17.95;13.50;;;;;;;;;;5041286;28;20036;-77
2023/05/16 10:27:25;;;;;;;22.42;15.32;;;;;;;;;;5022511;28;20351;-75
2023/05/16 10:29:52;;;;;;;17.40;13.57;;;;;;;;;;5046404;28;20033;-77
2023/05/16 10:32:18;;;;;;;18.73;14.00;;;;;;;;;;5012951;28;20040;-75
2023/05/16 10:34:45;;;;;;;20.67;14.07;;;;;;;;;;5025255;28;20048;-76
2023/05/16 10:37:11;;;;;;;28.30;16.20;;;;;;;;;;5029332;28;20033;-76
2023/05/16 10:39:37;;;;;;;17.83;14.43;;;;;;;;;;5047414;28;20523;-76
2023/05/16 10:42:04;;;;;;;22.48;15.30;;;;;;;;;;5045224;28;20021;-77
2023/05/16 10:44:32;;;;;;;16.67;14.05;;;;;;;;;;5050159;28;20060;-76
2023/05/16 10:46:59;;;;;;;17.73;13.68;;;;;;;;;;5020760;28;20417;-76
2023/05/16 10:49:27;;;;;;;17.20;14.55;;;;;;;;;;5028473;28;20040;-77
2023/05/16 10:52:12;;;;;;;19.17;15.82;;;;;;;;;;5034294;28;20544;-75
2023/05/16 10:54:40;;;;;;;25.38;14.93;;;;;;;;;;5048431;28;20041;-77
2023/05/16 10:57:14;;;;;;;23.33;15.60;;;;;;;;;;5046063;28;20045;-76
2023/05/16 10:59:42;;;;;;;18.98;15.32;;;;;;;;;;5038461;28;20052;-76
2023/05/16 11:02:33;;;;;;;22.92;16.23;;;;;;;;;;5023012;28;20029;-77
2023/05/16 11:05:01;;;;;;;19.98;15.32;;;;;;;;;;5029002;28;20056;-77
2023/05/16 11:07:37;;;;;;;18.40;15.13;;;;;;;;;;5034214;28;20047;-77
2023/05/16 11:10:17;;;;;;;19.05;15.18;;;;;;;;;;5023704;28;20020;-76
2023/05/16 11:13:07;;;;;;;22.95;15.98;;;;;;;;;;5039618;28;20106;-76
2023/05/16 11:15:33;;;;;;;18.27;14.52;;;;;;;;;;5023356;28;20041;-77
2023/05/16 11:18:15;;;;;;;20.58;16.17;;;;;;;;;;5042747;28;20116;-75
2023/05/16 11:20:42;;;;;;;19.48;14.93;;;;;;;;;;5032706;28;20036;-76
2023/05/16 11:23:23;;;;;;;22.25;16.33;;;;;;;;;;5006176;28;20114;-75
2023/05/16 11:25:51;;;;;;;20.73;15.85;;;;;;;;;;5046486;28;20036;-73
2023/05/16 11:28:21;;;;;;;19.85;15.32;;;;;;;;;;5025849;28;20421;-72
2023/05/16 11:30:49;;;;;;;20.55;15.50;;;;;;;;;;5027425;28;20041;-74
2023/05/16 11:33:16;;;;;;;21.17;16.23;;;;;;;;;;5046237;28;20031;-72
2023/05/16 11:35:42;;;;;;;21.05;15.30;;;;;;;;;;5037250;28;20023;-71
2023/05/16 11:38:17;;;;;;;25.83;15.55;;;;;;;;;;5029552;28;20511;-74
2023/05/16 11:40:44;;;;;;;26.25;16.80;;;;;;;;;;5041917;28;20025;-73
2023/05/16 11:43:17;;;;;;;23.55;17.17;;;;;;;;;;5025447;28;20098;-74
2023/05/16 11:45:44;;;;;;;26.48;17.95;;;;;;;;;;5045305;28;20132;-73
2023/05/16 11:48:11;;;;;;;23.25;17.27;;;;;;;;;;5051575;28;20043;-75
2023/05/16 11:50:37;;;;;;;23.13;17.27;;;;;;;;;;5045218;28;20071;-73
2023/05/16 11:53:02;;;;;;;27.17;16.30;;;;;;;;;;5018524;28;20032;-74
2023/05/16 11:55:29;;;;;;;23.25;16.98;;;;;;;;;;5032712;28;20052;-74
2023/05/16 11:57:57;;;;;;;26.83;17.38;;;;;;;;;;5021325;28;20437;-75
2023/05/16 12:00:26;;;;;;;19.20;16.00;;;;;;;;;;5031506;28;20040;-75
2023/05/16 12:02:53;;;;;;;24.48;17.13;;;;;;;;;;5040322;28;20037;-75
2023/05/16 12:05:25;;;;;;;24.80;17.27;;;;;;;;;;5013297;28;20051;-75
2023/05/16 12:07:54;;;;;;;21.23;16.02;;;;;;;;;;5022975;28;20086;-75
2023/05/16 12:10:20;;;;;;;22.45;17.25;;;;;;;;;;5025280;28;20048;-77
2023/05/16 12:12:48;;;;;;;29.85;18.88;;;;;;;;;;5032535;28;20446;-74
2023/05/16 12:15:17;;;;;;;31.10;20.08;;;;;;;;;;5024410;28;20114;-76
2023/05/16 12:17:46;;;;;;;30.80;18.92;;;;;;;;;;5025033;28;20411;-76
2023/05/16 12:20:15;;;;;;;32.40;18.40;;;;;;;;;;5030264;28;20040;-75
2023/05/16 12:22:42;;;;;;;27.77;19.73;;;;;;;;;;5031144;28;20105;-77
2023/05/16 12:25:37;;;;;;;;;;;;;;;;;;;;;
2023/05/16 12:28:17;;;;;;;29.08;19.38;;;;;;;;;;5046725;28;20043;-76
2023/05/16 12:30:47;;;;;;;28.87;19.73;;;;;;;;;;5037928;28;20049;-76
2023/05/16 12:33:20;;;;;;;28.85;19.50;;;;;;;;;;5026301;28;20416;-79
2023/05/16 12:35:56;;;;;;;28.13;19.50;;;;;;;;;;5009441;28;20037;-75
2023/05/16 12:38:29;;;;;;;31.08;19.55;;;;;;;;;;5021070;28;20043;-77
2023/05/16 12:41:01;;;;;;;33.10;19.95;;;;;;;;;;5029379;28;20033;-77
2023/05/16 12:43:27;;;;;;;31.42;18.88;;;;;;;;;;5052898;28;20126;-75
2023/05/16 12:45:55;;;;;;;24.02;16.98;;;;;;;;;;5046502;28;20142;-77
2023/05/16 12:48:29;;;;;;;28.58;16.85;;;;;;;;;;5019347;28;20052;-77
2023/05/16 12:50:56;;;;;;;27.83;18.08;;;;;;;;;;5037872;28;20066;-75
2023/05/16 12:53:22;;;;;;;28.05;16.42;;;;;;;;;;5041905;28;20029;-77
2023/05/16 12:55:49;;;;;;;26.00;16.63;;;;;;;;;;5048564;28;20056;-77
2023/05/16 12:58:16;;;;;;;28.30;16.58;;;;;;;;;;5039667;28;20025;-78
2023/05/16 13:00:43;;;;;;;25.48;16.90;;;;;;;;;;5034475;28;20426;-77
2023/05/16 13:03:09;;;;;;;27.13;15.90;;;;;;;;;;5039589;28;20645;-77
2023/05/16 13:05:34;;;;;;;18.42;13.75;;;;;;;;;;5048915;28;20044;-78
2023/05/16 13:08:01;;;;;;;20.40;12.95;;;;;;;;;;5028462;28;20093;-76
2023/05/16 13:10:27;;;;;;;51.25;15.77;;;;;;;;;;5035106;28;20035;-77
2023/05/16 13:12:52;;;;;;;17.88;12.48;;;;;;;;;;5022069;28;20032;-77
2023/05/16 13:15:18;;;;;;;19.70;12.70;;;;;;;;;;5050441;28;20061;-77
2023/05/16 13:17:44;;;;;;;19.35;12.35;;;;;;;;;;5027524;28;20074;-77
2023/05/16 13:20:13;;;;;;;14.65;10.93;;;;;;;;;;5052643;28;20024;-77
2023/05/16 13:22:41;;;;;;;17.70;12.63;;;;;;;;;;5025577;28;20068;-77
2023/05/16 13:25:07;;;;;;;16.52;11.23;;;;;;;;;;5021907;28;20037;-77
2023/05/16 13:27:33;;;;;;;17.38;11.85;;;;;;;;;;5002961;28;20730;-76
2023/05/16 13:29:59;;;;;;;17.45;12.15;;;;;;;;;;5033764;28;20037;-78
2023/05/16 13:32:25;;;;;;;17.02;11.88;;;;;;;;;;5027460;28;20045;-78
2023/05/16 13:34:51;;;;;;;17.30;12.23;;;;;;;;;;5030061;28;20031;-76
2023/05/16 13:37:19;;;;;;;19.20;12.45;;;;;;;;;;5028515;28;20090;-79
2023/05/16 13:39:45;;;;;;;19.95;12.85;;;;;;;;;;5024743;28;20454;-77
2023/05/16 13:42:11;;;;;;;21.42;12.10;;;;;;;;;;5018426;28;20134;-76
2023/05/16 13:44:38;;;;;;;17.15;11.88;;;;;;;;;;5022701;28;20829;-77
2023/05/16 13:47:07;;;;;;;19.50;12.43;;;;;;;;;;5045422;28;20035;-76
2023/05/16 13:49:36;;;;;;;19.63;12.32;;;;;;;;;;5047912;28;20033;-77
2023/05/16 13:52:02;;;;;;;19.48;12.43;;;;;;;;;;5053568;28;20029;-76
2023/05/16 13:54:29;;;;;;;18.88;11.77;;;;;;;;;;5014538;28;20057;-77
2023/05/16 13:56:54;;;;;;;17.00;12.40;;;;;;;;;;5035521;28;20135;-77
2023/05/16 13:59:20;;;;;;;17.88;11.00;;;;;;;;;;5023411;28;20118;-80
2023/05/16 14:01:45;;;;;;;16.08;11.63;;;;;;;;;;5048534;28;20031;-76
2023/05/16 14:04:11;;;;;;;17.70;12.13;;;;;;;;;;5047781;28;20037;-77
2023/05/16 14:06:37;;;;;;;16.75;10.82;;;;;;;;;;5032990;28;20037;-78
2023/05/16 14:09:03;;;;;;;16.10;10.90;;;;;;;;;;5020274;28;20124;-77
2023/05/16 14:11:29;;;;;;;15.48;11.32;;;;;;;;;;5028110;28;20540;-78
2023/05/16 14:13:56;;;;;;;15.07;10.80;;;;;;;;;;5058592;28;20037;-77
2023/05/16 14:16:23;;;;;;;19.55;10.52;;;;;;;;;;5038859;28;20037;-78
2023/05/16 14:18:49;;;;;;;18.85;11.10;;;;;;;;;;5050996;28;20060;-77
2023/05/16 14:21:14;;;;;;;13.50;10.18;;;;;;;;;;5036924;28;20446;-77
2023/05/16 14:23:40;;;;;;;14.57;9.48;;;;;;;;;;5036131;28;20025;-78
2023/05/16 14:26:05;;;;;;;16.15;11.50;;;;;;;;;;5052070;28;20033;-76
2023/05/16 14:28:31;;;;;;;18.95;11.40;;;;;;;;;;5047175;28;20032;-77